Terminal Aerodrome Forecast
Issued by NWS Buffalo, NY

Home | Current Version | Previous Version | Text Only | Print | Product List | Glossary On
Versions: 1 2 3 4 5 6 7 8 9 10 11 12 13 14 15 16 17 18 19 20 21 22 23 24 25 26 27 28 29 30
000
FTUS41 KBUF 190900 AAA
TAFART
TAF AMD
KART 190916Z 1909/2006 31009KT 5SM HZ SCT007 OVC015
     FM191400 34006KT P6SM OVC025
     FM191900 34006KT P6SM OVC035
     FM192300 36005KT P6SM SCT035
     FM200200 VRB03KT P6SM FEW200=

USA.gov is the U.S. government's official web portal to all federal, state and local government web resources and services.